createdAt,value
2022-08-07T00:02:35.229Z,69.60
2022-08-07T00:04:09.591Z,69.50
2022-08-07T00:06:45.528Z,69.40
2022-08-07T00:09:21.177Z,69.40
2022-08-07T00:11:56.118Z,69.50
2022-08-07T00:14:30.097Z,69.50
2022-08-07T00:17:02.539Z,69.40
2022-08-07T00:19:59.638Z,69.40
2022-08-07T00:22:24.738Z,69.30
2022-08-07T00:25:11.014Z,69.40
2022-08-07T00:27:52.244Z,69.30
2022-08-07T00:30:26.645Z,70.10
2022-08-07T00:32:58.308Z,69.40
2022-08-07T00:35:26.351Z,69.40
2022-08-07T00:37:53.504Z,69.40
2022-08-07T00:40:39.797Z,69.50
2022-08-07T00:43:09.997Z,69.50
2022-08-07T00:45:38.972Z,69.30
2022-08-07T00:48:09.082Z,69.40
2022-08-07T00:50:50.467Z,69.40
2022-08-07T00:53:20.212Z,69.30
2022-08-07T00:56:02.082Z,69.30
2022-08-07T00:58:31.386Z,69.20
2022-08-07T01:00:58.897Z,69.20
2022-08-07T01:03:56.283Z,69.10
2022-08-07T01:06:13.780Z,69.10
2022-08-07T01:08:52.808Z,69.10
2022-08-07T01:12:09.145Z,69.10
2022-08-07T01:14:08.987Z,69.10
2022-08-07T01:16:36.869Z,69.20
2022-08-07T01:19:05.024Z,69.10
2022-08-07T01:21:45.999Z,69.10
2022-08-07T01:24:14.296Z,69.20
2022-08-07T01:26:51.714Z,69.20
2022-08-07T01:29:23.292Z,69.30
2022-08-07T01:31:50.798Z,69.40
2022-08-07T01:34:18.955Z,69.40
2022-08-07T01:36:52.953Z,69.50
2022-08-07T01:39:39.663Z,69.50
2022-08-07T01:42:39.610Z,69.50
2022-08-07T01:45:02.027Z,69.50
2022-08-07T01:48:17.869Z,69.40
2022-08-07T01:50:17.060Z,69.50
2022-08-07T01:52:58.388Z,69.60
2022-08-07T01:55:42.775Z,69.60
2022-08-07T01:58:27.242Z,69.70
2022-08-07T02:01:09.900Z,69.70
2022-08-07T02:03:55.669Z,69.60
2022-08-07T02:06:31.918Z,69.60
2022-08-07T02:09:04.220Z,69.60
2022-08-07T02:12:04.647Z,69.60
2022-08-07T02:14:40.226Z,69.60
2022-08-07T02:17:11.003Z,69.50
2022-08-07T02:20:07.032Z,69.60
2022-08-07T02:22:30.770Z,69.60
2022-08-07T02:24:59.454Z,69.60
2022-08-07T02:27:34.448Z,69.40
2022-08-07T02:30:04.009Z,69.40
2022-08-07T02:32:42.635Z,69.40
2022-08-07T02:36:28.289Z,69.20
2022-08-07T02:38:16.872Z,69.40
2022-08-07T02:40:53.922Z,69.40
2022-08-07T02:43:23.414Z,69.30
2022-08-07T02:45:58.311Z,69.40
2022-08-07T02:48:26.674Z,69.30
2022-08-07T02:50:56.183Z,69.30
2022-08-07T02:53:27.560Z,69.20
2022-08-07T02:56:03.153Z,69.20
2022-08-07T02:58:34.462Z,68.10
2022-08-07T03:01:03.405Z,69.10
2022-08-07T03:03:49.239Z,69.00
2022-08-07T03:06:25.501Z,68.90
2022-08-07T03:09:04.710Z,69.00
2022-08-07T03:11:38.397Z,68.90
2022-08-07T03:14:06.903Z,68.80
2022-08-07T03:16:35.605Z,68.80
2022-08-07T03:19:02.653Z,68.60
2022-08-07T03:21:33.045Z,68.60
2022-08-07T03:24:20.966Z,68.60
2022-08-07T03:26:59.184Z,68.60
2022-08-07T03:29:36.595Z,68.50
2022-08-07T03:32:07.424Z,68.40
2022-08-07T03:34:47.413Z,68.30
2022-08-07T03:37:29.405Z,68.40
2022-08-07T03:40:14.887Z,68.30
2022-08-07T03:42:44.469Z,68.20
2022-08-07T03:45:12.142Z,68.20
2022-08-07T03:47:57.712Z,68.00
2022-08-07T03:50:25.414Z,68.10
2022-08-07T03:53:00.251Z,68.00
2022-08-07T03:55:53.327Z,67.80
2022-08-07T03:59:04.868Z,67.60
2022-08-07T04:01:07.338Z,67.60
2022-08-07T04:03:38.911Z,67.70
2022-08-07T04:06:36.206Z,67.60
2022-08-07T04:09:05.912Z,67.50
2022-08-07T04:12:20.669Z,67.50
2022-08-07T04:14:37.533Z,67.40
2022-08-07T04:17:21.344Z,67.40
2022-08-07T04:19:52.703Z,67.60
2022-08-07T04:22:28.418Z,67.40
2022-08-07T04:24:57.994Z,67.50
2022-08-07T04:27:26.506Z,67.50
2022-08-07T04:30:01.549Z,67.50
2022-08-07T04:32:34.407Z,67.50
2022-08-07T04:35:05.589Z,67.50
2022-08-07T04:37:52.954Z,67.40
2022-08-07T04:40:21.821Z,67.40
2022-08-07T04:42:53.578Z,67.50
2022-08-07T04:45:44.517Z,67.30
2022-08-07T04:48:27.396Z,67.50
2022-08-07T04:51:03.507Z,67.40
2022-08-07T04:54:05.632Z,67.60
2022-08-07T04:58:24.123Z,67.60
2022-08-07T05:00:12.396Z,67.30
2022-08-07T05:02:57.002Z,67.30
2022-08-07T05:05:53.463Z,67.50
2022-08-07T05:09:01.090Z,67.40
2022-08-07T05:11:57.477Z,67.40
2022-08-07T05:14:52.592Z,67.40
2022-08-07T05:18:00.648Z,67.20
2022-08-07T05:20:16.941Z,67.30
2022-08-07T05:22:47.502Z,67.20
2022-08-07T05:25:25.519Z,67.20
2022-08-07T05:28:20.612Z,67.10
2022-08-07T05:30:52.740Z,67.90
2022-08-07T05:33:21.575Z,66.90
2022-08-07T05:35:51.213Z,67.00
2022-08-07T05:39:01.293Z,67.00
2022-08-07T05:41:14.504Z,66.90
2022-08-07T05:44:08.448Z,67.00
2022-08-07T05:46:36.176Z,67.00
2022-08-07T05:49:11.941Z,67.00
2022-08-07T05:51:46.429Z,66.90
2022-08-07T05:54:30.091Z,67.00
2022-08-07T05:57:01.117Z,67.00
2022-08-07T05:59:39.062Z,67.00
2022-08-07T06:02:28.460Z,66.80
2022-08-07T06:05:00.351Z,67.00
2022-08-07T06:08:14.976Z,66.80
2022-08-07T06:10:15.669Z,66.80
2022-08-07T06:12:42.564Z,66.80
2022-08-07T06:15:15.942Z,66.70
2022-08-07T06:17:53.635Z,66.90
2022-08-07T06:20:31.967Z,66.90
2022-08-07T06:23:46.085Z,66.70
2022-08-07T06:25:59.752Z,66.80
2022-08-07T06:28:28.486Z,66.70
2022-08-07T06:30:58.317Z,66.60
2022-08-07T06:33:26.209Z,66.50
2022-08-07T06:36:06.576Z,66.50
2022-08-07T06:38:59.515Z,66.10
2022-08-07T06:42:01.997Z,66.30
2022-08-07T06:44:21.651Z,66.70
2022-08-07T06:46:53.834Z,66.70
2022-08-07T06:49:50.890Z,66.50
2022-08-07T06:52:31.531Z,66.50
2022-08-07T06:55:32.249Z,66.40
2022-08-07T06:58:03.172Z,66.70
2022-08-07T07:00:36.630Z,66.70
2022-08-07T07:03:08.678Z,66.70
2022-08-07T07:06:03.766Z,66.60
2022-08-07T07:08:30.853Z,66.70
2022-08-07T07:11:01.026Z,66.70
2022-08-07T07:13:55.985Z,66.80
2022-08-07T07:16:30.159Z,66.80
2022-08-07T07:19:11.466Z,66.70
2022-08-07T07:22:11.716Z,66.60
2022-08-07T07:24:42.855Z,66.40
2022-08-07T07:27:35.567Z,66.30
2022-08-07T07:30:32.393Z,66.30
2022-08-07T07:33:01.699Z,66.20
2022-08-07T07:35:33.355Z,66.20
2022-08-07T07:38:05.778Z,66.20
2022-08-07T07:40:34.391Z,66.30
2022-08-07T07:43:15.193Z,66.30
2022-08-07T07:46:50.482Z,66.20
2022-08-07T07:48:36.499Z,66.30
2022-08-07T07:51:07.537Z,67.60
2022-08-07T07:53:51.899Z,68.80
2022-08-07T07:56:30.266Z,68.90
2022-08-07T07:59:00.261Z,69.70
2022-08-07T08:02:04.868Z,70.20
2022-08-07T08:04:19.785Z,70.00
2022-08-07T08:06:53.339Z,69.90
2022-08-07T08:09:24.550Z,70.60
2022-08-07T08:12:02.429Z,70.50
2022-08-07T08:14:32.555Z,72.00
2022-08-07T08:17:56.418Z,71.60
2022-08-07T08:20:17.627Z,72.00
2022-08-07T08:23:01.398Z,71.10
2022-08-07T08:25:49.871Z,71.70
2022-08-07T08:28:23.970Z,71.30
2022-08-07T08:31:07.711Z,72.40
2022-08-07T08:33:48.991Z,72.00
2022-08-07T08:36:25.723Z,71.80
2022-08-07T08:39:00.083Z,71.30
2022-08-07T08:41:57.690Z,71.60
2022-08-07T08:44:44.728Z,72.20
2022-08-07T08:47:56.065Z,72.00
2022-08-07T08:50:39.141Z,72.10
2022-08-07T08:53:06.547Z,71.50
2022-08-07T08:55:55.515Z,72.20
2022-08-07T08:58:54.632Z,72.10
2022-08-07T09:01:44.245Z,71.30
2022-08-07T09:04:54.720Z,72.10
2022-08-07T09:07:46.400Z,71.60
2022-08-07T09:10:54.072Z,71.00
2022-08-07T09:13:38.141Z,71.20
2022-08-07T09:16:29.733Z,70.80
2022-08-07T09:19:07.153Z,71.50
2022-08-07T09:22:23.072Z,72.10
2022-08-07T09:25:14.687Z,71.20
2022-08-07T09:28:00.298Z,72.20
2022-08-07T09:30:54.980Z,72.30
2022-08-07T09:33:57.580Z,71.80
2022-08-07T09:36:35.627Z,72.60
2022-08-07T09:39:53.103Z,70.40
2022-08-07T09:42:09.288Z,73.00
2022-08-07T09:47:24.644Z,72.30
2022-08-07T09:48:01.438Z,72.80
2022-08-07T09:51:01.819Z,70.60
2022-08-07T09:53:41.153Z,71.70
2022-08-07T09:56:46.645Z,71.50
2022-08-07T09:59:24.875Z,70.00
2022-08-07T10:02:19.118Z,70.50
2022-08-07T10:05:12.370Z,70.50
2022-08-07T10:07:55.520Z,70.30
2022-08-07T10:12:00.224Z,70.30
2022-08-07T10:13:58.350Z,70.10
2022-08-07T10:17:03.531Z,69.70
2022-08-07T10:19:59.987Z,69.40
2022-08-07T10:22:38.517Z,69.20
2022-08-07T10:25:42.326Z,69.10
2022-08-07T10:28:37.938Z,68.40
2022-08-07T10:31:39.069Z,68.80
2022-08-07T10:34:53.518Z,68.80
2022-08-07T10:38:00.179Z,68.70
2022-08-07T10:40:38.697Z,68.50
2022-08-07T10:43:29.724Z,68.50
2022-08-07T10:46:08.633Z,68.40
2022-08-07T10:49:00.940Z,68.20
2022-08-07T10:52:01.695Z,68.40
2022-08-07T10:54:40.911Z,68.30
2022-08-07T10:57:38.015Z,68.10
2022-08-07T11:00:39.673Z,68.00
2022-08-07T11:03:52.988Z,68.10
2022-08-07T11:06:49.513Z,68.00
2022-08-07T11:10:09.294Z,67.90
2022-08-07T11:12:31.698Z,67.70
2022-08-07T11:15:17.299Z,68.60
2022-08-07T11:18:03.584Z,68.00
2022-08-07T11:20:31.291Z,67.80
2022-08-07T11:23:30.826Z,67.60
2022-08-07T11:26:23.595Z,67.60
2022-08-07T11:29:13.154Z,68.10
2022-08-07T11:32:26.214Z,67.80
2022-08-07T11:35:01.756Z,67.60
2022-08-07T11:38:12.873Z,66.50
2022-08-07T11:40:59.345Z,66.80
2022-08-07T11:43:54.966Z,66.70
2022-08-07T11:46:56.187Z,66.00
2022-08-07T11:50:30.062Z,65.60
2022-08-07T11:52:47.648Z,65.30
2022-08-07T11:56:25.937Z,65.10
2022-08-07T12:00:10.777Z,64.90
2022-08-07T12:02:52.212Z,65.60
2022-08-07T12:05:58.383Z,66.00
2022-08-07T12:08:44.132Z,65.50
2022-08-07T12:11:32.393Z,65.40
2022-08-07T12:14:08.322Z,65.30
2022-08-07T12:16:40.933Z,65.40
2022-08-07T12:19:35.606Z,65.60
2022-08-07T12:22:37.425Z,65.60
2022-08-07T12:26:21.687Z,65.90
2022-08-07T12:28:58.932Z,65.90
2022-08-07T12:31:53.340Z,65.40
2022-08-07T12:34:31.605Z,65.80
2022-08-07T12:37:00.836Z,65.70
2022-08-07T12:39:44.222Z,65.20
2022-08-07T12:42:27.277Z,65.10
2022-08-07T12:44:58.731Z,65.20
2022-08-07T12:47:37.450Z,64.90
2022-08-07T12:50:38.311Z,64.90
2022-08-07T12:53:18.903Z,65.00
2022-08-07T12:56:09.225Z,65.00
2022-08-07T12:58:40.080Z,65.20
2022-08-07T13:01:18.787Z,65.30
2022-08-07T13:04:33.978Z,65.20
2022-08-07T13:08:14.578Z,64.60
2022-08-07T13:10:44.038Z,64.80
2022-08-07T13:13:52.592Z,64.50
2022-08-07T13:16:37.365Z,64.50
2022-08-07T13:19:50.685Z,64.50
2022-08-07T13:22:36.278Z,64.20
2022-08-07T13:25:10.506Z,64.70
2022-08-07T13:28:12.658Z,64.10
2022-08-07T13:30:52.119Z,64.20
2022-08-07T13:34:31.278Z,64.10
2022-08-07T13:37:04.285Z,64.40
2022-08-07T13:40:34.067Z,64.40
2022-08-07T13:42:27.863Z,64.20
2022-08-07T13:45:11.760Z,64.40
2022-08-07T13:48:06.900Z,64.40
2022-08-07T13:51:00.291Z,64.30
2022-08-07T13:53:45.734Z,64.20
2022-08-07T13:56:35.419Z,64.10
2022-08-07T13:59:15.563Z,64.10
2022-08-07T14:01:59.259Z,64.20
2022-08-07T14:04:36.296Z,64.30
2022-08-07T14:07:10.199Z,64.30
2022-08-07T14:10:12.529Z,64.20
2022-08-07T14:12:36.139Z,64.70
2022-08-07T14:15:28.250Z,64.30
2022-08-07T14:18:27.185Z,64.20
2022-08-07T14:22:00.477Z,64.40
2022-08-07T14:24:06.249Z,64.20
2022-08-07T14:26:52.487Z,64.30
2022-08-07T14:30:07.844Z,64.00
2022-08-07T14:32:15.964Z,64.00
2022-08-07T14:34:46.406Z,63.70
2022-08-07T14:37:16.816Z,63.80
2022-08-07T14:40:15.701Z,64.10
2022-08-07T14:42:35.688Z,64.20
2022-08-07T14:48:34.628Z,64.00
2022-08-07T14:54:30.096Z,64.00
2022-08-07T14:56:42.316Z,64.20
2022-08-07T14:59:13.708Z,64.80
2022-08-07T15:02:31.648Z,64.00
2022-08-07T15:05:02.331Z,64.30
2022-08-07T15:07:51.028Z,64.20
2022-08-07T15:10:26.399Z,64.20
2022-08-07T15:12:58.126Z,64.40
2022-08-07T15:15:34.743Z,64.40
2022-08-07T15:18:14.038Z,64.40
2022-08-07T15:21:03.940Z,64.50
2022-08-07T15:25:13.966Z,64.50
2022-08-07T15:26:36.279Z,64.60
2022-08-07T15:30:08.799Z,65.70
2022-08-07T15:32:00.727Z,64.40
2022-08-07T15:38:04.813Z,64.30
2022-08-07T15:40:35.022Z,64.00
2022-08-07T15:46:32.429Z,64.40
2022-08-07T15:49:12.724Z,64.40
2022-08-07T15:54:42.072Z,64.50
2022-08-07T15:57:27.975Z,64.50
2022-08-07T16:00:06.903Z,64.60
2022-08-07T16:02:46.970Z,64.70
2022-08-07T16:05:19.263Z,64.60
2022-08-07T16:08:32.058Z,64.60
2022-08-07T16:10:38.450Z,64.60
2022-08-07T16:13:58.962Z,64.50
2022-08-07T16:16:43.181Z,64.30
2022-08-07T16:19:59.452Z,64.50
2022-08-07T16:22:54.333Z,64.60
2022-08-07T16:25:55.218Z,64.60
2022-08-07T16:30:06.977Z,64.60
2022-08-07T16:32:03.901Z,64.60
2022-08-07T16:34:50.915Z,64.70
2022-08-07T16:38:06.254Z,64.80
2022-08-07T16:41:19.638Z,64.80
2022-08-07T16:44:46.210Z,64.80
2022-08-07T16:47:42.272Z,64.90
2022-08-07T16:50:37.215Z,64.80
2022-08-07T16:53:55.370Z,64.90
2022-08-07T16:56:04.374Z,64.90
2022-08-07T16:59:10.591Z,65.00
2022-08-07T17:02:09.014Z,65.00
2022-08-07T17:04:58.810Z,65.00
2022-08-07T17:07:55.954Z,65.10
2022-08-07T17:10:54.562Z,65.00
2022-08-07T17:13:41.171Z,65.00
2022-08-07T17:16:25.072Z,65.00
2022-08-07T17:18:51.933Z,65.00
2022-08-07T17:21:28.965Z,65.10
2022-08-07T17:24:33.306Z,65.00
2022-08-07T17:27:08.443Z,64.50
2022-08-07T17:30:14.676Z,65.10
2022-08-07T17:32:55.817Z,65.30
2022-08-07T17:35:54.941Z,65.50
2022-08-07T17:38:50.171Z,65.60
2022-08-07T17:42:01.720Z,65.30
2022-08-07T17:44:34.142Z,65.00
2022-08-07T17:47:16.824Z,64.80
2022-08-07T17:50:14.294Z,64.60
2022-08-07T17:52:59.571Z,63.80
2022-08-07T17:56:11.193Z,63.60
2022-08-07T17:58:50.110Z,63.40
2022-08-07T18:01:21.995Z,63.80
2022-08-07T18:04:20.711Z,64.00
2022-08-07T18:07:24.539Z,63.60
2022-08-07T18:10:32.141Z,63.90
2022-08-07T18:13:15.265Z,63.80
2022-08-07T18:16:01.121Z,63.20
2022-08-07T18:21:04.510Z,63.50
2022-08-07T18:21:56.682Z,63.50
2022-08-07T18:24:44.491Z,63.30
2022-08-07T18:27:55.845Z,63.30
2022-08-07T18:30:36.892Z,63.30
2022-08-07T18:33:22.405Z,63.20
2022-08-07T18:36:01.248Z,63.30
2022-08-07T18:38:59.265Z,63.30
2022-08-07T18:42:21.339Z,63.30
2022-08-07T18:45:44.583Z,63.40
2022-08-07T18:48:10.167Z,63.40
2022-08-07T18:52:35.152Z,63.50
2022-08-07T18:54:27.961Z,63.50
2022-08-07T18:57:40.306Z,63.50
2022-08-07T19:00:33.441Z,62.90
2022-08-07T19:03:16.317Z,64.20
2022-08-07T19:06:03.825Z,64.20
2022-08-07T19:08:37.753Z,64.10
2022-08-07T19:11:35.280Z,64.10
2022-08-07T19:14:17.085Z,64.10
2022-08-07T19:17:07.092Z,64.20
2022-08-07T19:20:04.936Z,64.20
2022-08-07T19:22:54.324Z,64.30
2022-08-07T19:26:25.177Z,64.20
2022-08-07T19:30:54.779Z,64.90
2022-08-07T19:31:42.873Z,64.30
2022-08-07T19:34:08.263Z,64.20
2022-08-07T19:36:40.751Z,64.20
2022-08-07T19:39:10.339Z,64.20
2022-08-07T19:41:44.950Z,64.20
2022-08-07T19:44:41.187Z,64.10
2022-08-07T19:47:27.451Z,64.10
2022-08-07T19:49:57.823Z,64.10
2022-08-07T19:52:30.821Z,64.10
2022-08-07T19:54:59.811Z,64.10
2022-08-07T19:58:00.840Z,64.10
2022-08-07T20:00:29.751Z,64.20
2022-08-07T20:03:03.180Z,64.10
2022-08-07T20:06:00.662Z,64.10
2022-08-07T20:08:31.771Z,64.10
2022-08-07T20:11:10.381Z,64.10
2022-08-07T20:13:46.100Z,64.10
2022-08-07T20:16:35.073Z,64.10
2022-08-07T20:19:05.283Z,64.10
2022-08-07T20:21:46.705Z,64.10
2022-08-07T20:24:21.778Z,64.10
2022-08-07T20:26:52.384Z,64.10
2022-08-07T20:29:49.402Z,64.10
2022-08-07T20:32:39.836Z,64.00
2022-08-07T20:35:16.254Z,64.00
2022-08-07T20:37:58.370Z,64.00
2022-08-07T20:40:32.206Z,64.00
2022-08-07T20:43:02.448Z,64.00
2022-08-07T20:46:27.062Z,63.90
2022-08-07T20:48:28.827Z,63.90
2022-08-07T20:51:00.034Z,63.90
2022-08-07T20:54:03.821Z,63.80
2022-08-07T20:56:16.476Z,63.80
2022-08-07T20:58:53.247Z,63.80
2022-08-07T21:01:22.322Z,63.70
2022-08-07T21:04:18.789Z,63.70
2022-08-07T21:06:53.166Z,63.90
2022-08-07T21:09:24.191Z,63.90
2022-08-07T21:11:57.086Z,64.00
2022-08-07T21:14:34.022Z,64.00
2022-08-07T21:18:03.477Z,64.10
2022-08-07T21:20:05.070Z,64.20
2022-08-07T21:22:54.323Z,64.10
2022-08-07T21:26:01.378Z,64.20
2022-08-07T21:28:50.886Z,64.20
2022-08-07T21:32:42.539Z,64.20
2022-08-07T21:34:59.199Z,64.30
2022-08-07T21:37:59.618Z,64.40
2022-08-07T21:40:44.166Z,64.40
2022-08-07T21:43:22.742Z,64.30
2022-08-07T21:46:24.420Z,64.50
2022-08-07T21:49:17.803Z,64.40
2022-08-07T21:52:12.991Z,64.50
2022-08-07T21:55:19.245Z,65.40
2022-08-07T21:58:30.331Z,64.60
2022-08-07T22:02:11.340Z,64.70
2022-08-07T22:04:31.369Z,64.60
2022-08-07T22:07:14.634Z,64.60
2022-08-07T22:09:54.396Z,64.60
2022-08-07T22:12:31.494Z,64.60
2022-08-07T22:16:38.482Z,64.50
2022-08-07T22:18:21.959Z,64.70
2022-08-07T22:20:52.307Z,64.60
2022-08-07T22:23:42.687Z,64.60
2022-08-07T22:26:44.643Z,64.60
2022-08-07T22:29:37.677Z,64.60
2022-08-07T22:32:25.969Z,64.60
2022-08-07T22:34:57.615Z,64.60
2022-08-07T22:38:03.921Z,64.70
2022-08-07T22:40:35.077Z,64.80
2022-08-07T22:43:27.957Z,64.60
2022-08-07T22:46:43.373Z,64.70
2022-08-07T22:49:21.060Z,64.90
2022-08-07T22:52:37.337Z,64.70
2022-08-07T22:55:30.861Z,64.70
2022-08-07T22:58:12.550Z,64.80
2022-08-07T23:01:08.151Z,64.70
2022-08-07T23:03:58.417Z,64.80
2022-08-07T23:07:03.776Z,64.80
2022-08-07T23:10:37.797Z,64.80
2022-08-07T23:13:48.628Z,65.90
2022-08-07T23:16:59.609Z,65.00
2022-08-07T23:20:02.896Z,64.90
2022-08-07T23:22:39.174Z,65.00
2022-08-07T23:25:21.781Z,65.00
2022-08-07T23:28:21.349Z,64.20
2022-08-07T23:32:50.243Z,65.00
2022-08-07T23:34:47.467Z,64.80
2022-08-07T23:37:20.081Z,64.90
2022-08-07T23:40:08.084Z,64.90
2022-08-07T23:42:53.257Z,64.90
2022-08-07T23:45:33.545Z,64.80
2022-08-07T23:48:23.224Z,64.90
2022-08-07T23:51:02.258Z,64.90
2022-08-07T23:54:06.180Z,65.00
2022-08-07T23:56:53.508Z,65.00
